Time;durP1;ratioP1;P1;durP2;ratioP2;P2;SDS_P1;SDS_P2;PMS_P1;PMS_P2;Temp;Humidity;BMP_temperature;BMP_pressure;BME280_temperature;BME280_humidity;BME280_pressure;Samples;Min_cycle;Max_cycle;Signal;HPM_P1;HPM_P2
2023/03/31 00:00:10;;;;;;;;;;;;;;;;;;5054396;28;19916;-59
2023/03/31 00:02:36;;;;;;;;;;;;;;;;;;5055720;28;19919;-60
2023/03/31 00:05:02;;;;;;;;;;;;;;;;;;5052341;28;19909;-60
2023/03/31 00:07:28;;;;;;;;;;;;;;;;;;5054098;28;19909;-60
2023/03/31 00:09:56;;;;;;;;;;;;;;;;;;5054072;28;19909;-57
2023/03/31 00:12:25;;;;;;;;;;;;;;;;;;5053896;28;19920;-58
2023/03/31 00:14:51;;;;;;;;;;;;;;;;;;5068845;22;20028;-66
2023/03/31 00:17:17;;;;;;;;;;;;;;;;;;5052802;28;19952;-66
2023/03/31 00:19:43;;;;;;;;;;;;;;;;;;5052803;28;19909;-66
2023/03/31 00:22:09;;;;;;;;;;;;;;;;;;5052830;28;20396;-67
2023/03/31 00:24:35;;;;;;;;;;;;;;;;;;5051948;28;19944;-67
2023/03/31 00:27:01;;;;;;;;;;;;;;;;;;5052563;28;19909;-67
2023/03/31 00:29:26;;;;;;;;;;;;;;;;;;5063933;28;19913;-68
2023/03/31 00:31:53;;;;;;;;;;;;;;;;;;5071033;28;19908;-67
2023/03/31 00:34:18;;;;;;;;;;;;;;;;;;5071458;28;19970;-68
2023/03/31 00:36:46;;;;;;;;;;;;;;;;;;5070920;28;19948;-68
2023/03/31 00:39:12;;;;;;;;;;;;;;;;;;5072330;28;19912;-68
2023/03/31 00:41:38;;;;;;;;;;;;;;;;;;5070819;28;19913;-66
2023/03/31 00:44:03;;;;;;;;;;;;;;;;;;5071698;28;20372;-66
2023/03/31 00:46:29;;;;;;;;;;;;;;;;;;5072153;28;19908;-67
2023/03/31 00:48:56;;;;;;;;;;;;;;;;;;5070887;28;20444;-67
2023/03/31 00:51:22;;;;;;;;;;;;;;;;;;5071999;28;19916;-67
2023/03/31 00:53:48;;;;;;;;;;;;;;;;;;5071241;28;20016;-68
2023/03/31 00:56:14;;;;;;;;;;;;;;;;;;5071968;28;19962;-68
2023/03/31 00:58:42;;;;;;;;;;;;;;;;;;5072089;28;19958;-67
2023/03/31 01:01:09;;;;;;;;;;;;;;;;;;5071793;28;19936;-68
2023/03/31 01:03:37;;;;;;;;;;;;;;;;;;5071046;28;19915;-67
2023/03/31 01:06:03;;;;;;;;;;;;;;;;;;5071664;28;19915;-66
2023/03/31 01:08:29;;;;;;;;;;;;;;;;;;5071760;28;19912;-66
2023/03/31 01:10:55;;;;;;;;;;;;;;;;;;5071606;28;19908;-67
2023/03/31 01:13:21;;;;;;;;;;;;;;;;;;5070779;28;19959;-67
2023/03/31 01:15:47;;;;;;;;;;;;;;;;;;5071498;28;20003;-67
2023/03/31 01:18:13;;;;;;;;;;;;;;;;;;5071462;28;19930;-67
2023/03/31 01:20:39;;;;;;;;;;;;;;;;;;5071254;28;19935;-67
2023/03/31 01:23:05;;;;;;;;;;;;;;;;;;5070766;28;19962;-67
2023/03/31 01:25:32;;;;;;;;;;;;;;;;;;5069972;28;19909;-68
2023/03/31 01:27:58;;;;;;;;;;;;;;;;;;5072306;28;19928;-69
2023/03/31 01:30:24;;;;;;;;;;;;;;;;;;5072203;28;20017;-67
2023/03/31 01:32:50;;;;;;;;;;;;;;;;;;5070616;28;19977;-67
2023/03/31 01:35:18;;;;;;;;;;;;;;;;;;5069389;28;19948;-68
2023/03/31 01:37:44;;;;;;;;;;;;;;;;;;5070278;28;19950;-67
2023/03/31 01:40:10;;;;;;;;;;;;;;;;;;5070356;28;19951;-68
2023/03/31 01:42:36;;;;;;;;;;;;;;;;;;5070189;28;19969;-68
2023/03/31 01:45:02;;;;;;;;;;;;;;;;;;5069455;28;19916;-66
2023/03/31 01:47:27;;;;;;;;;;;;;;;;;;5070837;28;19908;-70
2023/03/31 01:49:53;;;;;;;;;;;;;;;;;;5071946;28;20364;-68
2023/03/31 01:52:19;;;;;;;;;;;;;;;;;;5070432;28;19909;-70
2023/03/31 01:54:45;;;;;;;;;;;;;;;;;;5071049;28;19916;-68
2023/03/31 01:57:11;;;;;;;;;;;;;;;;;;5072546;28;20289;-69
2023/03/31 01:59:37;;;;;;;;;;;;;;;;;;5070427;28;19909;-68
2023/03/31 02:02:03;;;;;;;;;;;;;;;;;;5071692;28;19912;-69
2023/03/31 02:04:29;;;;;;;;;;;;;;;;;;5070471;28;19908;-68
2023/03/31 02:06:55;;;;;;;;;;;;;;;;;;5070715;28;19916;-69
2023/03/31 02:09:21;;;;;;;;;;;;;;;;;;5070976;28;19915;-69
2023/03/31 02:11:49;;;;;;;;;;;;;;;;;;5071000;28;19909;-67
2023/03/31 02:14:18;;;;;;;;;;;;;;;;;;5070268;28;19917;-68
2023/03/31 02:16:46;;;;;;;;;;;;;;;;;;5069977;28;19909;-68
2023/03/31 02:19:12;;;;;;;;;;;;;;;;;;5070050;28;19912;-68
2023/03/31 02:21:38;;;;;;;;;;;;;;;;;;5069943;28;19913;-69
2023/03/31 02:24:04;;;;;;;;;;;;;;;;;;5070454;28;19964;-68
2023/03/31 02:26:30;;;;;;;;;;;;;;;;;;5070283;28;19966;-67
2023/03/31 02:28:56;;;;;;;;;;;;;;;;;;5071205;28;19951;-68
2023/03/31 02:31:22;;;;;;;;;;;;;;;;;;5071290;28;19966;-66
2023/03/31 02:33:48;;;;;;;;;;;;;;;;;;5070324;28;19954;-66
2023/03/31 02:36:14;;;;;;;;;;;;;;;;;;5069517;28;19931;-66
2023/03/31 02:38:40;;;;;;;;;;;;;;;;;;5069465;28;20369;-66
2023/03/31 02:41:06;;;;;;;;;;;;;;;;;;5070382;28;19919;-67
2023/03/31 02:43:32;;;;;;;;;;;;;;;;;;5069568;28;19931;-68
2023/03/31 02:45:58;;;;;;;;;;;;;;;;;;5070481;28;19909;-66
2023/03/31 02:48:24;;;;;;;;;;;;;;;;;;5070450;28;19961;-67
2023/03/31 02:50:50;;;;;;;;;;;;;;;;;;5070286;28;19909;-67
2023/03/31 02:53:15;;;;;;;;;;;;;;;;;;5069488;28;19923;-67
2023/03/31 02:55:42;;;;;;;;;;;;;;;;;;5070431;28;19999;-67
2023/03/31 02:58:11;;;;;;;;;;;;;;;;;;5070813;28;19908;-68
2023/03/31 03:00:37;;;;;;;;;;;;;;;;;;5074507;28;20304;-66
2023/03/31 03:03:02;;;;;;;;;;;;;;;;;;5073597;28;19908;-66
2023/03/31 03:05:33;;;;;;;;;;;;;;;;;;5074094;28;19908;-66
2023/03/31 03:07:59;;;;;;;;;;;;;;;;;;5074228;28;19966;-66
2023/03/31 03:10:25;;;;;;;;;;;;;;;;;;5074470;28;19958;-66
2023/03/31 03:12:51;;;;;;;;;;;;;;;;;;5074147;28;19915;-66
2023/03/31 03:15:16;;;;;;;;;;;;;;;;;;5073198;28;19920;-67
2023/03/31 03:17:42;;;;;;;;;;;;;;;;;;5072760;28;19953;-64
2023/03/31 03:20:08;;;;;;;;;;;;;;;;;;5074151;28;20305;-66
2023/03/31 03:22:34;;;;;;;;;;;;;;;;;;5073936;28;19916;-65
2023/03/31 03:25:00;;;;;;;;;;;;;;;;;;5073189;28;19919;-64
2023/03/31 03:27:27;;;;;;;;;;;;;;;;;;5072643;28;19927;-65
2023/03/31 03:29:53;;;;;;;;;;;;;;;;;;5073715;28;19912;-64
2023/03/31 03:32:19;;;;;;;;;;;;;;;;;;5072549;28;20007;-64
2023/03/31 03:34:44;;;;;;;;;;;;;;;;;;5072991;28;19931;-65
2023/03/31 03:37:10;;;;;;;;;;;;;;;;;;5072206;28;20269;-65
2023/03/31 03:39:36;;;;;;;;;;;;;;;;;;5073414;28;19999;-61
2023/03/31 03:42:02;;;;;;;;;;;;;;;;;;5073345;28;19919;-66
2023/03/31 03:44:28;;;;;;;;;;;;;;;;;;5072619;28;19923;-66
2023/03/31 03:46:54;;;;;;;;;;;;;;;;;;5066311;28;20008;-66
2023/03/31 03:49:20;;;;;;;;;;;;;;;;;;5053364;28;19913;-66
2023/03/31 03:51:46;;;;;;;;;;;;;;;;;;5053310;28;19909;-65
2023/03/31 03:54:12;;;;;;;;;;;;;;;;;;5052487;28;19952;-64
2023/03/31 03:56:37;;;;;;;;;;;;;;;;;;5053314;28;19931;-65
2023/03/31 03:59:03;;;;;;;;;;;;;;;;;;5053053;28;19923;-64
2023/03/31 04:01:29;;;;;;;;;;;;;;;;;;5051672;28;20285;-65
2023/03/31 04:03:55;;;;;;;;;;;;;;;;;;5051018;28;19921;-66
2023/03/31 04:06:21;;;;;;;;;;;;;;;;;;5053088;28;19912;-65
2023/03/31 04:08:47;;;;;;;;;;;;;;;;;;5052766;28;19971;-63
2023/03/31 04:11:13;;;;;;;;;;;;;;;;;;5053012;28;19909;-65
2023/03/31 04:13:39;;;;;;;;;;;;;;;;;;5052160;28;19913;-67
2023/03/31 04:16:05;;;;;;;;;;;;;;;;;;5050868;28;19916;-65
2023/03/31 04:18:31;;;;;;;;;;;;;;;;;;5052620;28;19996;-64
2023/03/31 04:21:03;;;;;;;;;;;;;;;;;;5052789;28;20399;-66
2023/03/31 04:23:29;;;;;;;;;;;;;;;;;;5052374;28;19913;-64
2023/03/31 04:25:55;;;;;;;;;;;;;;;;;;5052306;28;19929;-64
2023/03/31 04:28:21;;;;;;;;;;;;;;;;;;5052545;28;19916;-64
2023/03/31 04:30:47;;;;;;;;;;;;;;;;;;5052418;28;20349;-63
2023/03/31 04:33:14;;;;;;;;;;;;;;;;;;5051559;28;19983;-63
2023/03/31 04:35:51;;;;;;;;;;;;;;;;;;5052381;28;19905;-64
2023/03/31 04:38:19;;;;;;;;;;;;;;;;;;5052478;28;19973;-64
2023/03/31 04:40:45;;;;;;;;;;;;;;;;;;5050893;28;19913;-65
2023/03/31 04:43:11;;;;;;;;;;;;;;;;;;5051537;28;19909;-64
2023/03/31 04:45:37;;;;;;;;;;;;;;;;;;5052230;28;19909;-64
2023/03/31 04:48:03;;;;;;;;;;;;;;;;;;5052256;28;19909;-66
2023/03/31 04:50:29;;;;;;;;;;;;;;;;;;5052298;28;19913;-65
2023/03/31 04:52:55;;;;;;;;;;;;;;;;;;5052159;28;19912;-66
2023/03/31 04:55:21;;;;;;;;;;;;;;;;;;5051526;28;20348;-66
2023/03/31 04:57:46;;;;;;;;;;;;;;;;;;5050803;28;19909;-67
2023/03/31 05:00:13;;;;;;;;;;;;;;;;;;5052217;28;20519;-64
2023/03/31 05:02:39;;;;;;;;;;;;;;;;;;5051823;28;20539;-64
2023/03/31 05:05:05;;;;;;;;;;;;;;;;;;5050986;28;19912;-65
2023/03/31 05:07:30;;;;;;;;;;;;;;;;;;5050608;28;19909;-65
2023/03/31 05:09:56;;;;;;;;;;;;;;;;;;5051654;28;19909;-64
2023/03/31 05:12:22;;;;;;;;;;;;;;;;;;5052003;28;20346;-64
2023/03/31 05:14:48;;;;;;;;;;;;;;;;;;5050685;28;19946;-65
2023/03/31 05:17:16;;;;;;;;;;;;;;;;;;5051920;28;19934;-65
2023/03/31 05:19:42;;;;;;;;;;;;;;;;;;5051231;28;19909;-64
2023/03/31 05:22:08;;;;;;;;;;;;;;;;;;5049059;28;19913;-63
2023/03/31 05:24:34;;;;;;;;;;;;;;;;;;5050353;28;20387;-66
2023/03/31 05:27:00;;;;;;;;;;;;;;;;;;5050197;28;19915;-67
2023/03/31 05:29:26;;;;;;;;;;;;;;;;;;5051482;28;19909;-65
2023/03/31 05:31:55;;;;;;;;;;;;;;;;;;5049852;28;19909;-62
2023/03/31 05:34:20;;;;;;;;;;;;;;;;;;5047957;28;19909;-64
2023/03/31 05:36:52;;;;;;;;;;;;;;;;;;5051014;28;19915;-67
2023/03/31 05:39:18;;;;;;;;;;;;;;;;;;5030894;28;20337;-64
2023/03/31 05:41:44;;;;;;;;;;;;;;;;;;5036608;28;19963;-65
2023/03/31 05:44:10;;;;;;;;;;;;;;;;;;5050153;28;20005;-66
2023/03/31 05:46:36;;;;;;;;;;;;;;;;;;5050867;28;19909;-64
2023/03/31 05:49:02;;;;;;;;;;;;;;;;;;5050726;28;19916;-62
2023/03/31 05:51:27;;;;;;;;;;;;;;;;;;5050606;28;20373;-61
2023/03/31 05:53:53;;;;;;;;;;;;;;;;;;5049554;28;19909;-63
2023/03/31 05:56:20;;;;;;;;;;;;;;;;;;5050572;28;19916;-62
2023/03/31 05:58:46;;;;;;;;;;;;;;;;;;5050143;28;19916;-58
2023/03/31 06:01:12;;;;;;;;;;;;;;;;;;5050314;28;19916;-54
2023/03/31 06:03:40;;;;;;;;;;;;;;;;;;5049576;28;20459;-56
2023/03/31 06:06:06;;;;;;;;;;;;;;;;;;5050582;28;19920;-57
2023/03/31 06:08:32;;;;;;;;;;;;;;;;;;5050229;28;20304;-57
2023/03/31 06:10:58;;;;;;;;;;;;;;;;;;5050293;28;19909;-55
2023/03/31 06:13:24;;;;;;;;;;;;;;;;;;5049026;28;19948;-54
2023/03/31 06:15:50;;;;;;;;;;;;;;;;;;5073859;22;19925;-50
2023/03/31 06:18:16;;;;;;;;;;;;;;;;;;5046472;28;20407;-54
2023/03/31 06:20:42;;;;;;;;;;;;;;;;;;5051062;28;19924;-56
2023/03/31 06:23:08;;;;;;;;;;;;;;;;;;5050766;28;19913;-52
2023/03/31 06:25:34;;;;;;;;;;;;;;;;;;5051483;28;19944;-54
2023/03/31 06:28:00;;;;;;;;;;;;;;;;;;5051392;28;19915;-52
2023/03/31 06:30:26;;;;;;;;;;;;;;;;;;5050117;28;19951;-53
2023/03/31 06:32:51;;;;;;;;;;;;;;;;;;5051160;28;19909;-52
2023/03/31 06:35:17;;;;;;;;;;;;;;;;;;5050307;28;20003;-55
2023/03/31 06:37:43;;;;;;;;;;;;;;;;;;5051197;28;20266;-52
2023/03/31 06:40:09;;;;;;;;;;;;;;;;;;5051289;28;19988;-56
2023/03/31 06:42:35;;;;;;;;;;;;;;;;;;5051072;28;19923;-55
2023/03/31 06:45:01;;;;;;;;;;;;;;;;;;5049353;28;19908;-53
2023/03/31 06:47:27;;;;;;;;;;;;;;;;;;5050936;28;19909;-58
2023/03/31 06:49:53;;;;;;;;;;;;;;;;;;5051642;28;19909;-63
2023/03/31 06:52:19;;;;;;;;;;;;;;;;;;5051504;28;20364;-57
2023/03/31 06:54:45;;;;;;;;;;;;;;;;;;5050708;28;19917;-61
2023/03/31 06:57:11;;;;;;;;;;;;;;;;;;5051647;28;19915;-58
2023/03/31 06:59:37;;;;;;;;;;;;;;;;;;5051322;28;19909;-59
2023/03/31 07:02:04;;;;;;;;;;;;;;;;;;5050669;28;19917;-62
2023/03/31 07:04:30;;;;;;;;;;;;;;;;;;4696404;28;9999679;-63
2023/03/31 07:06:56;;;;;;;;;;;;;;;;;;5045746;28;19913;-62
2023/03/31 07:09:22;;;;;;;;;;;;;;;;;;5047632;28;19917;-62
2023/03/31 07:11:48;;;;;;;;;;;;;;;;;;5046942;28;20023;-63
2023/03/31 07:14:14;;;;;;;;;;;;;;;;;;5046573;28;20349;-63
2023/03/31 07:16:40;;;;;;;;;;;;;;;;;;5046584;28;19956;-63
2023/03/31 07:19:05;;;;;;;;;;;;;;;;;;5047252;28;19920;-61
2023/03/31 07:21:31;;;;;;;;;;;;;;;;;;5045990;28;19913;-62
2023/03/31 07:23:57;;;;;;;;;;;;;;;;;;5046834;28;19917;-62
2023/03/31 07:26:23;;;;;;;;;;;;;;;;;;5047112;28;19913;-62
2023/03/31 07:28:50;;;;;;;;;;;;;;;;;;5046669;28;19944;-62
2023/03/31 07:31:16;;;;;;;;;;;;;;;;;;5047474;28;19917;-62
2023/03/31 07:33:42;;;;;;;;;;;;;;;;;;5046922;28;19919;-61
2023/03/31 07:36:08;;;;;;;;;;;;;;;;;;5047317;28;19913;-63
2023/03/31 07:38:34;;;;;;;;;;;;;;;;;;5045562;28;19913;-63
2023/03/31 07:41:17;;;;;;;;;;;;;;;;;;5047408;28;19917;-64
2023/03/31 07:43:43;;;;;;;;;;;;;;;;;;5049117;28;19913;-65
2023/03/31 07:46:09;;;;;;;;;;;;;;;;;;5052070;28;19921;-60
2023/03/31 07:48:35;;;;;;;;;;;;;;;;;;5053771;28;19908;-61
2023/03/31 07:51:01;;;;;;;;;;;;;;;;;;5053830;28;19920;-62
2023/03/31 07:53:27;;;;;;;;;;;;;;;;;;5053094;28;19971;-64
2023/03/31 07:55:56;;;;;;;;;;;;;;;;;;5054051;28;19909;-59
2023/03/31 07:58:22;;;;;;;;;;;;;;;;;;5054244;28;20514;-60
2023/03/31 08:00:47;;;;;;;;;;;;;;;;;;5053878;28;19994;-62
2023/03/31 08:03:13;;;;;;;;;;;;;;;;;;5053267;28;19913;-59
2023/03/31 08:05:39;;;;;;;;;;;;;;;;;;5053596;28;19909;-60
2023/03/31 08:08:05;;;;;;;;;;;;;;;;;;5054022;28;19913;-60
2023/03/31 08:10:31;;;;;;;;;;;;;;;;;;5053928;28;19909;-59
2023/03/31 08:12:57;;;;;;;;;;;;;;;;;;5053295;28;19909;-62
2023/03/31 08:15:23;;;;;;;;;;;;;;;;;;5051708;28;19920;-62
2023/03/31 08:17:49;;;;;;;;;;;;;;;;;;5053583;28;19931;-61
2023/03/31 08:20:15;;;;;;;;;;;;;;;;;;5051957;28;19909;-62
2023/03/31 08:22:41;;;;;;;;;;;;;;;;;;5053385;28;19913;-63
2023/03/31 08:25:07;;;;;;;;;;;;;;;;;;5052621;28;19908;-59
2023/03/31 08:27:33;;;;;;;;;;;;;;;;;;5053346;28;20368;-59
2023/03/31 08:30:02;;;;;;;;;;;;;;;;;;5053347;28;20336;-61
2023/03/31 08:32:27;;;;;;;;;;;;;;;;;;5051779;28;19995;-62
2023/03/31 08:34:53;;;;;;;;;;;;;;;;;;5052477;28;19962;-61
2023/03/31 08:37:20;;;;;;;;;;;;;;;;;;5053161;28;20381;-61
2023/03/31 08:39:46;;;;;;;;;;;;;;;;;;5053119;28;19913;-62
2023/03/31 08:42:11;;;;;;;;;;;;;;;;;;5050813;28;19913;-61
2023/03/31 08:44:37;;;;;;;;;;;;;;;;;;4697485;28;9999981;-59
2023/03/31 08:47:03;;;;;;;;;;;;;;;;;;5049729;28;19995;-62
2023/03/31 08:49:29;;;;;;;;;;;;;;;;;;5049657;28;20385;-61
2023/03/31 08:51:55;;;;;;;;;;;;;;;;;;5049983;28;19913;-57
2023/03/31 08:54:21;;;;;;;;;;;;;;;;;;5048321;28;20399;-61
2023/03/31 08:56:47;;;;;;;;;;;;;;;;;;5049246;28;19913;-59
2023/03/31 08:59:13;;;;;;;;;;;;;;;;;;5049355;28;20663;-62
2023/03/31 09:01:39;;;;;;;;;;;;;;;;;;5049177;28;19963;-60
2023/03/31 09:04:05;;;;;;;;;;;;;;;;;;5048548;28;19919;-62
2023/03/31 09:06:31;;;;;;;;;;;;;;;;;;5047612;28;19916;-60
2023/03/31 09:08:57;;;;;;;;;;;;;;;;;;5049084;28;19916;-63
2023/03/31 09:11:22;;;;;;;;;;;;;;;;;;5049146;28;20305;-60
2023/03/31 09:13:48;;;;;;;;;;;;;;;;;;5048259;28;20040;-60
2023/03/31 09:16:14;;;;;;;;;;;;;;;;;;5048780;28;20305;-59
2023/03/31 09:18:45;;;;;;;;;;;;;;;;;;5048297;28;20376;-59
2023/03/31 09:21:11;;;;;;;;;;;;;;;;;;5049105;28;20175;-60
2023/03/31 09:23:37;;;;;;;;;;;;;;;;;;5046961;28;19913;-59
2023/03/31 09:26:03;;;;;;;;;;;;;;;;;;5048740;28;19913;-57
2023/03/31 09:28:29;;;;;;;;;;;;;;;;;;5049620;28;19999;-61
2023/03/31 09:30:55;;;;;;;;;;;;;;;;;;5050316;28;20284;-57
2023/03/31 09:33:21;;;;;;;;;;;;;;;;;;5050818;28;20304;-57
2023/03/31 09:35:47;;;;;;;;;;;;;;;;;;5051771;28;20015;-59
2023/03/31 09:38:13;;;;;;;;;;;;;;;;;;4699373;28;10000038;-58
2023/03/31 09:40:39;;;;;;;;;;;;;;;;;;5048624;28;19913;-60
2023/03/31 09:43:05;;;;;;;;;;;;;;;;;;5047829;28;20363;-63
2023/03/31 09:45:32;;;;;;;;;;;;;;;;;;5047082;28;19974;-57
2023/03/31 09:47:58;;;;;;;;;;;;;;;;;;5041531;28;19916;-58
2023/03/31 09:50:25;;;;;;;;;;;;;;;;;;5049378;28;19963;-61
2023/03/31 09:52:51;;;;;;;;;;;;;;;;;;5050134;28;19909;-58
2023/03/31 09:55:17;;;;;;;;;;;;;;;;;;5050485;28;19974;-59
2023/03/31 09:57:43;;;;;;;;;;;;;;;;;;5050182;28;19909;-59
2023/03/31 10:00:17;;;;;;;;;;;;;;;;;;5049171;28;19917;-61
2023/03/31 10:02:44;;;;;;;;;;;;;;;;;;5049264;28;19913;-54
2023/03/31 10:05:11;;;;;;;;;;;;;;;;;;5050534;28;20046;-51
2023/03/31 10:07:36;;;;;;;;;;;;;;;;;;5049407;28;19958;-54
2023/03/31 10:10:02;;;;;;;;;;;;;;;;;;5051527;28;20397;-55
2023/03/31 10:12:28;;;;;;;;;;;;;;;;;;5049961;28;19919;-57
2023/03/31 10:14:54;;;;;;;;;;;;;;;;;;5050174;28;20385;-58
2023/03/31 10:17:20;;;;;;;;;;;;;;;;;;5051272;28;20388;-59
2023/03/31 10:19:46;;;;;;;;;;;;;;;;;;5051509;28;19905;-57
2023/03/31 10:22:12;;;;;;;;;;;;;;;;;;5051120;28;19912;-60
2023/03/31 10:24:38;;;;;;;;;;;;;;;;;;5050617;28;19912;-60
2023/03/31 10:27:04;;;;;;;;;;;;;;;;;;5051251;28;19931;-60
2023/03/31 10:29:30;;;;;;;;;;;;;;;;;;5048184;28;19913;-56
2023/03/31 10:31:56;;;;;;;;;;;;;;;;;;5051433;28;19912;-56
2023/03/31 10:34:21;;;;;;;;;;;;;;;;;;5050193;28;19948;-56
2023/03/31 10:36:47;;;;;;;;;;;;;;;;;;5051234;28;19909;-55
2023/03/31 10:39:13;;;;;;;;;;;;;;;;;;5050918;28;19916;-58
2023/03/31 10:41:39;;;;;;;;;;;;;;;;;;5049764;28;19913;-60
2023/03/31 10:44:05;;;;;;;;;;;;;;;;;;5050001;28;19923;-61
2023/03/31 10:46:31;;;;;;;;;;;;;;;;;;5049463;28;19913;-58
2023/03/31 10:48:57;;;;;;;;;;;;;;;;;;5051322;28;19909;-57
2023/03/31 10:51:23;;;;;;;;;;;;;;;;;;5051324;28;19946;-61
2023/03/31 10:53:49;;;;;;;;;;;;;;;;;;5050874;28;19947;-61
2023/03/31 10:56:18;;;;;;;;;;;;;;;;;;5050248;28;20368;-59
2023/03/31 10:58:44;;;;;;;;;;;;;;;;;;5051694;28;19928;-60
2023/03/31 11:01:12;;;;;;;;;;;;;;;;;;5050364;28;20307;-65
2023/03/31 11:03:38;;;;;;;;;;;;;;;;;;5050880;28;19916;-60
2023/03/31 11:06:04;;;;;;;;;;;;;;;;;;5050600;28;19909;-55
2023/03/31 11:08:30;;;;;;;;;;;;;;;;;;5050891;28;19917;-57
2023/03/31 11:10:57;;;;;;;;;;;;;;;;;;5050931;28;19916;-60
2023/03/31 11:13:23;;;;;;;;;;;;;;;;;;5049750;28;19999;-58
2023/03/31 11:15:49;;;;;;;;;;;;;;;;;;5049497;28;19962;-58
2023/03/31 11:18:15;;;;;;;;;;;;;;;;;;5049446;28;19962;-57
2023/03/31 11:20:41;;;;;;;;;;;;;;;;;;5051496;28;20003;-61
2023/03/31 11:23:07;;;;;;;;;;;;;;;;;;5053569;28;20288;-61
2023/03/31 11:25:34;;;;;;;;;;;;;;;;;;5051789;28;19913;-58
2023/03/31 11:27:59;;;;;;;;;;;;;;;;;;5042704;28;19909;-57
2023/03/31 11:30:25;;;;;;;;;;;;;;;;;;5053866;28;20340;-55
2023/03/31 11:32:51;;;;;;;;;;;;;;;;;;5046670;28;19913;-62
2023/03/31 11:35:17;;;;;;;;;;;;;;;;;;5053407;28;20000;-61
2023/03/31 11:37:44;;;;;;;;;;;;;;;;;;5052622;28;19908;-61
2023/03/31 11:40:10;;;;;;;;;;;;;;;;;;5053360;28;19974;-61
2023/03/31 11:42:36;;;;;;;;;;;;;;;;;;5053784;28;20385;-59
2023/03/31 11:45:02;;;;;;;;;;;;;;;;;;5053062;28;20400;-61
2023/03/31 11:47:29;;;;;;;;;;;;;;;;;;4701552;28;10000091;-61
2023/03/31 11:49:55;;;;;;;;;;;;;;;;;;5050450;28;19928;-62
2023/03/31 11:52:21;;;;;;;;;;;;;;;;;;5050479;28;19916;-63
2023/03/31 11:54:47;;;;;;;;;;;;;;;;;;5049853;28;20447;-63
2023/03/31 11:57:12;;;;;;;;;;;;;;;;;;5049948;28;20011;-63
2023/03/31 11:59:38;;;;;;;;;;;;;;;;;;5050148;28;19914;-63
2023/03/31 12:02:04;;;;;;;;;;;;;;;;;;5048381;28;19920;-60
2023/03/31 12:04:32;;;;;;;;;;;;;;;;;;5049843;28;19959;-63
2023/03/31 12:06:58;;;;;;;;;;;;;;;;;;5049886;28;19909;-63
2023/03/31 12:09:24;;;;;;;;;;;;;;;;;;5050350;28;19924;-62
2023/03/31 12:11:50;;;;;;;;;;;;;;;;;;5049110;28;19909;-63
2023/03/31 12:16:46;;;;;;;;;;;;;;;;;;5074492;22;19924;-61
2023/03/31 12:19:13;;;;;;;;;;;;;;;;;;5052461;28;19919;-64
2023/03/31 12:21:39;;;;;;;;;;;;;;;;;;4702088;28;10000010;-60
2023/03/31 12:24:05;;;;;;;;;;;;;;;;;;5048994;28;19924;-62
2023/03/31 12:26:31;;;;;;;;;;;;;;;;;;5049552;28;19995;-63
2023/03/31 12:28:57;;;;;;;;;;;;;;;;;;5037757;28;19921;-64
2023/03/31 12:31:23;;;;;;;;;;;;;;;;;;5016812;28;19980;-59
2023/03/31 12:33:49;;;;;;;;;;;;;;;;;;5017993;28;19929;-62
2023/03/31 12:36:15;;;;;;;;;;;;;;;;;;5017632;28;20012;-62
2023/03/31 12:38:40;;;;;;;;;;;;;;;;;;5021134;28;19952;-63
2023/03/31 12:41:06;;;;;;;;;;;;;;;;;;5019561;28;19971;-63
2023/03/31 12:43:32;;;;;;;;;;;;;;;;;;5018073;28;19924;-62
2023/03/31 12:45:58;;;;;;;;;;;;;;;;;;5020284;28;19913;-59
2023/03/31 12:48:24;;;;;;;;;;;;;;;;;;5018016;28;19960;-64
2023/03/31 12:50:50;;;;;;;;;;;;;;;;;;5017111;28;20044;-63
2023/03/31 12:53:16;;;;;;;;;;;;;;;;;;5015942;28;19983;-64
2023/03/31 12:55:42;;;;;;;;;;;;;;;;;;5019339;28;20437;-65
2023/03/31 12:58:08;;;;;;;;;;;;;;;;;;5017754;28;19916;-65
2023/03/31 13:00:34;;;;;;;;;;;;;;;;;;5026170;28;20561;-66
2023/03/31 13:03:00;;;;;;;;;;;;;;;;;;5028701;28;20004;-66
2023/03/31 13:05:26;;;;;;;;;;;;;;;;;;5037486;28;20008;-64
2023/03/31 13:07:52;;;;;;;;;;;;;;;;;;5035821;28;19920;-62
2023/03/31 13:10:18;;;;;;;;;;;;;;;;;;5027636;28;19920;-64
2023/03/31 13:12:44;;;;;;;;;;;;;;;;;;5024482;28;20413;-64
2023/03/31 13:15:10;;;;;;;;;;;;;;;;;;5027287;28;19956;-67
2023/03/31 13:17:36;;;;;;;;;;;;;;;;;;5028852;28;19913;-63
2023/03/31 13:20:02;;;;;;;;;;;;;;;;;;5028609;28;19913;-64
2023/03/31 13:22:30;;;;;;;;;;;;;;;;;;5027113;28;19967;-63
2023/03/31 13:24:56;;;;;;;;;;;;;;;;;;5026801;28;20501;-63
2023/03/31 13:27:22;;;;;;;;;;;;;;;;;;5027766;28;20003;-64
2023/03/31 13:29:48;;;;;;;;;;;;;;;;;;5027304;28;20007;-64
2023/03/31 13:32:14;;;;;;;;;;;;;;;;;;5020275;28;19917;-64
2023/03/31 13:34:40;;;;;;;;;;;;;;;;;;5026193;28;19968;-65
2023/03/31 13:37:07;;;;;;;;;;;;;;;;;;5012548;28;20313;-61
2023/03/31 13:39:33;;;;;;;;;;;;;;;;;;5008920;28;19914;-64
2023/03/31 13:41:58;;;;;;;;;;;;;;;;;;5007989;28;19913;-65
2023/03/31 13:44:25;;;;;;;;;;;;;;;;;;5008201;28;20146;-64
2023/03/31 13:46:51;;;;;;;;;;;;;;;;;;5009940;28;19913;-66
2023/03/31 13:49:17;;;;;;;;;;;;;;;;;;5009895;28;19921;-65
2023/03/31 13:51:42;;;;;;;;;;;;;;;;;;5011305;28;20382;-64
2023/03/31 13:54:08;;;;;;;;;;;;;;;;;;5010612;28;20024;-66
2023/03/31 13:56:34;;;;;;;;;;;;;;;;;;5011588;28;20000;-67
2023/03/31 13:59:00;;;;;;;;;;;;;;;;;;5010961;28;20274;-64
2023/03/31 14:01:26;;;;;;;;;;;;;;;;;;5010688;28;19921;-64
2023/03/31 14:03:52;;;;;;;;;;;;;;;;;;5010234;28;19920;-64
2023/03/31 14:06:18;;;;;;;;;;;;;;;;;;5035022;28;20409;-65
2023/03/31 14:08:44;;;;;;;;;;;;;;;;;;4691950;28;9999713;-65
2023/03/31 14:11:10;;;;;;;;;;;;;;;;;;5034532;28;19967;-67
2023/03/31 14:13:36;;;;;;;;;;;;;;;;;;5025678;28;19913;-65
2023/03/31 14:16:02;;;;;;;;;;;;;;;;;;5028428;28;19960;-64
2023/03/31 14:18:28;;;;;;;;;;;;;;;;;;5027804;28;19952;-65
2023/03/31 14:20:56;;;;;;;;;;;;;;;;;;5027178;28;19913;-66
2023/03/31 14:23:21;;;;;;;;;;;;;;;;;;5027278;28;19913;-66
2023/03/31 14:25:47;;;;;;;;;;;;;;;;;;5027415;28;20248;-66
2023/03/31 14:28:15;;;;;;;;;;;;;;;;;;5025826;28;19991;-67
2023/03/31 14:30:41;;;;;;;;;;;;;;;;;;5026436;28;19980;-66
2023/03/31 14:33:07;;;;;;;;;;;;;;;;;;5026551;28;20452;-65
2023/03/31 14:35:37;;;;;;;;;;;;;;;;;;5027110;28;19913;-66
2023/03/31 14:38:03;;;;;;;;;;;;;;;;;;5026980;28;20364;-66
2023/03/31 14:40:29;;;;;;;;;;;;;;;;;;5026107;28;19913;-65
2023/03/31 14:42:55;;;;;;;;;;;;;;;;;;5024973;28;19990;-66
2023/03/31 14:45:23;;;;;;;;;;;;;;;;;;5026759;28;19923;-63
2023/03/31 14:47:49;;;;;;;;;;;;;;;;;;5034892;28;19973;-65
2023/03/31 14:50:15;;;;;;;;;;;;;;;;;;5040747;28;19956;-65
2023/03/31 14:52:41;;;;;;;;;;;;;;;;;;5046892;28;19944;-65
2023/03/31 14:55:07;;;;;;;;;;;;;;;;;;5047883;28;19913;-66
2023/03/31 14:57:33;;;;;;;;;;;;;;;;;;5050626;28;19963;-66
2023/03/31 14:59:59;;;;;;;;;;;;;;;;;;5052934;28;19916;-66
2023/03/31 15:02:25;;;;;;;;;;;;;;;;;;5051943;28;19960;-61
2023/03/31 15:04:51;;;;;;;;;;;;;;;;;;5050619;28;19931;-67
2023/03/31 15:07:17;;;;;;;;;;;;;;;;;;5046615;28;20282;-65
2023/03/31 15:09:43;;;;;;;;;;;;;;;;;;5035219;28;19918;-67
2023/03/31 15:12:09;;;;;;;;;;;;;;;;;;5032020;28;19913;-66
2023/03/31 15:14:35;;;;;;;;;;;;;;;;;;5033271;28;20003;-65
2023/03/31 15:17:01;;;;;;;;;;;;;;;;;;5053636;28;19991;-65
2023/03/31 15:19:27;;;;;;;;;;;;;;;;;;5053235;28;19948;-64
2023/03/31 15:21:53;;;;;;;;;;;;;;;;;;5053724;28;19917;-66
2023/03/31 15:24:19;;;;;;;;;;;;;;;;;;5030454;28;19909;-64
2023/03/31 15:26:45;;;;;;;;;;;;;;;;;;5013222;28;20346;-64
2023/03/31 15:29:11;;;;;;;;;;;;;;;;;;5013727;28;19916;-65
2023/03/31 15:31:39;;;;;;;;;;;;;;;;;;5013627;28;19953;-66
2023/03/31 15:34:05;;;;;;;;;;;;;;;;;;5013157;28;19920;-66
2023/03/31 15:36:31;;;;;;;;;;;;;;;;;;5013457;28;20000;-66
2023/03/31 15:38:57;;;;;;;;;;;;;;;;;;5013484;28;19971;-64
2023/03/31 15:41:23;;;;;;;;;;;;;;;;;;5013267;28;19967;-66
2023/03/31 15:43:52;;;;;;;;;;;;;;;;;;5012333;28;19916;-65
2023/03/31 15:46:17;;;;;;;;;;;;;;;;;;5013173;28;19937;-68
2023/03/31 15:48:43;;;;;;;;;;;;;;;;;;5013877;28;20327;-64
2023/03/31 15:51:09;;;;;;;;;;;;;;;;;;5013384;28;19909;-65
2023/03/31 15:53:35;;;;;;;;;;;;;;;;;;5012430;28;19921;-64
2023/03/31 15:56:01;;;;;;;;;;;;;;;;;;5012254;28;20003;-65
2023/03/31 15:58:28;;;;;;;;;;;;;;;;;;5013359;28;20270;-65
2023/03/31 16:00:53;;;;;;;;;;;;;;;;;;5013003;28;20293;-66
2023/03/31 16:03:19;;;;;;;;;;;;;;;;;;5012621;28;19913;-69
2023/03/31 16:05:45;;;;;;;;;;;;;;;;;;5023811;28;19913;-64
2023/03/31 16:08:11;;;;;;;;;;;;;;;;;;5031038;28;19993;-65
2023/03/31 16:10:37;;;;;;;;;;;;;;;;;;5032310;28;20339;-66
2023/03/31 16:13:03;;;;;;;;;;;;;;;;;;5030526;28;19915;-65
2023/03/31 16:15:29;;;;;;;;;;;;;;;;;;4688727;28;9999715;-66
2023/03/31 16:17:55;;;;;;;;;;;;;;;;;;5030619;28;20626;-67
2023/03/31 16:20:21;;;;;;;;;;;;;;;;;;5030137;28;19917;-66
2023/03/31 16:22:47;;;;;;;;;;;;;;;;;;5030000;28;19917;-66
2023/03/31 16:25:13;;;;;;;;;;;;;;;;;;5029169;28;19948;-66
2023/03/31 16:27:39;;;;;;;;;;;;;;;;;;5028017;28;19931;-68
2023/03/31 16:30:05;;;;;;;;;;;;;;;;;;5029629;28;19921;-68
2023/03/31 16:32:31;;;;;;;;;;;;;;;;;;5029609;28;19919;-67
2023/03/31 16:34:57;;;;;;;;;;;;;;;;;;5028912;28;19932;-66
2023/03/31 16:37:23;;;;;;;;;;;;;;;;;;5029519;28;20464;-68